sensor_id;sensor_type;location;lat;lon;timestamp;P1;durP1;ratioP1;P2;durP2;ratioP2
63157;SDS011;49381;49.338;8.794;2022-12-18T00:00:38;59.30;;;26.85;;
63157;SDS011;49381;49.338;8.794;2022-12-18T00:02:39;61.65;;;27.40;;
63157;SDS011;49381;49.338;8.794;2022-12-18T00:04:40;59.70;;;27.67;;
63157;SDS011;49381;49.338;8.794;2022-12-18T00:06:42;62.97;;;27.77;;
63157;SDS011;49381;49.338;8.794;2022-12-18T00:08:44;59.83;;;27.15;;
63157;SDS011;49381;49.338;8.794;2022-12-18T00:10:45;59.92;;;26.42;;
63157;SDS011;49381;49.338;8.794;2022-12-18T00:12:45;55.60;;;25.80;;
63157;SDS011;49381;49.338;8.794;2022-12-18T00:14:46;54.05;;;24.88;;
63157;SDS011;49381;49.338;8.794;2022-12-18T00:16:46;54.58;;;25.13;;
63157;SDS011;49381;49.338;8.794;2022-12-18T00:18:49;62.70;;;27.30;;
63157;SDS011;49381;49.338;8.794;2022-12-18T00:20:50;56.30;;;25.70;;
63157;SDS011;49381;49.338;8.794;2022-12-18T00:22:50;57.92;;;27.58;;
63157;SDS011;49381;49.338;8.794;2022-12-18T00:24:52;57.03;;;26.23;;
63157;SDS011;49381;49.338;8.794;2022-12-18T00:26:54;59.60;;;26.70;;
63157;SDS011;49381;49.338;8.794;2022-12-18T00:28:55;61.85;;;25.98;;
63157;SDS011;49381;49.338;8.794;2022-12-18T00:30:59;57.00;;;25.88;;
63157;SDS011;49381;49.338;8.794;2022-12-18T00:33:00;55.45;;;25.20;;
63157;SDS011;49381;49.338;8.794;2022-12-18T00:35:00;55.47;;;25.42;;
63157;SDS011;49381;49.338;8.794;2022-12-18T00:37:01;60.47;;;25.90;;
63157;SDS011;49381;49.338;8.794;2022-12-18T00:39:02;60.38;;;26.75;;
63157;SDS011;49381;49.338;8.794;2022-12-18T00:41:05;60.08;;;25.73;;
63157;SDS011;49381;49.338;8.794;2022-12-18T00:43:07;59.22;;;25.67;;
63157;SDS011;49381;49.338;8.794;2022-12-18T00:45:07;70.85;;;31.10;;
63157;SDS011;49381;49.338;8.794;2022-12-18T00:47:08;141.95;;;56.60;;
63157;SDS011;49381;49.338;8.794;2022-12-18T00:49:08;144.10;;;57.42;;
63157;SDS011;49381;49.338;8.794;2022-12-18T00:51:09;97.85;;;39.20;;
63157;SDS011;49381;49.338;8.794;2022-12-18T00:53:09;77.38;;;33.22;;
63157;SDS011;49381;49.338;8.794;2022-12-18T00:55:10;77.00;;;31.38;;
63157;SDS011;49381;49.338;8.794;2022-12-18T00:57:12;70.75;;;29.92;;
63157;SDS011;49381;49.338;8.794;2022-12-18T00:59:12;69.75;;;29.55;;
63157;SDS011;49381;49.338;8.794;2022-12-18T01:01:13;66.93;;;29.95;;
63157;SDS011;49381;49.338;8.794;2022-12-18T01:03:13;67.32;;;29.85;;
63157;SDS011;49381;49.338;8.794;2022-12-18T01:05:14;67.15;;;29.20;;
63157;SDS011;49381;49.338;8.794;2022-12-18T01:07:15;69.88;;;28.70;;
63157;SDS011;49381;49.338;8.794;2022-12-18T01:09:17;65.93;;;29.00;;
63157;SDS011;49381;49.338;8.794;2022-12-18T01:11:18;68.10;;;28.98;;
63157;SDS011;49381;49.338;8.794;2022-12-18T01:13:21;61.38;;;28.33;;
63157;SDS011;49381;49.338;8.794;2022-12-18T01:15:21;59.95;;;26.60;;
63157;SDS011;49381;49.338;8.794;2022-12-18T01:17:22;56.30;;;25.80;;
63157;SDS011;49381;49.338;8.794;2022-12-18T01:19:24;48.55;;;24.45;;
63157;SDS011;49381;49.338;8.794;2022-12-18T01:21:24;55.25;;;24.15;;
63157;SDS011;49381;49.338;8.794;2022-12-18T01:23:24;56.47;;;24.77;;
63157;SDS011;49381;49.338;8.794;2022-12-18T01:25:25;54.10;;;24.20;;
63157;SDS011;49381;49.338;8.794;2022-12-18T01:27:25;60.33;;;26.65;;
63157;SDS011;49381;49.338;8.794;2022-12-18T01:29:27;56.65;;;25.60;;
63157;SDS011;49381;49.338;8.794;2022-12-18T01:31:28;58.22;;;24.92;;
63157;SDS011;49381;49.338;8.794;2022-12-18T01:33:30;61.55;;;29.00;;
63157;SDS011;49381;49.338;8.794;2022-12-18T01:35:30;55.20;;;26.27;;
63157;SDS011;49381;49.338;8.794;2022-12-18T01:37:31;56.28;;;26.77;;
63157;SDS011;49381;49.338;8.794;2022-12-18T01:39:31;59.53;;;26.42;;
63157;SDS011;49381;49.338;8.794;2022-12-18T01:41:32;58.10;;;26.77;;
63157;SDS011;49381;49.338;8.794;2022-12-18T01:43:43;61.97;;;28.38;;
63157;SDS011;49381;49.338;8.794;2022-12-18T01:45:50;58.30;;;26.10;;
63157;SDS011;49381;49.338;8.794;2022-12-18T01:47:51;58.35;;;26.38;;
63157;SDS011;49381;49.338;8.794;2022-12-18T01:49:53;52.42;;;24.98;;
63157;SDS011;49381;49.338;8.794;2022-12-18T01:51:55;60.67;;;26.55;;
63157;SDS011;49381;49.338;8.794;2022-12-18T01:53:55;59.17;;;26.90;;
63157;SDS011;49381;49.338;8.794;2022-12-18T01:55:57;57.33;;;27.05;;
63157;SDS011;49381;49.338;8.794;2022-12-18T01:58:00;61.63;;;25.55;;
63157;SDS011;49381;49.338;8.794;2022-12-18T02:00:01;55.67;;;23.67;;
63157;SDS011;49381;49.338;8.794;2022-12-18T02:02:09;52.53;;;24.42;;
63157;SDS011;49381;49.338;8.794;2022-12-18T02:06:28;57.03;;;23.98;;
63157;SDS011;49381;49.338;8.794;2022-12-18T02:08:33;52.15;;;22.92;;
63157;SDS011;49381;49.338;8.794;2022-12-18T02:10:42;54.53;;;24.40;;
63157;SDS011;49381;49.338;8.794;2022-12-18T02:12:48;61.75;;;26.27;;
63157;SDS011;49381;49.338;8.794;2022-12-18T02:14:54;56.85;;;26.33;;
63157;SDS011;49381;49.338;8.794;2022-12-18T02:16:59;58.15;;;25.05;;
63157;SDS011;49381;49.338;8.794;2022-12-18T02:19:06;59.67;;;27.25;;
63157;SDS011;49381;49.338;8.794;2022-12-18T02:21:21;60.53;;;27.85;;
63157;SDS011;49381;49.338;8.794;2022-12-18T02:23:35;56.15;;;25.17;;
63157;SDS011;49381;49.338;8.794;2022-12-18T02:26:01;57.80;;;23.85;;
63157;SDS011;49381;49.338;8.794;2022-12-18T02:28:09;54.28;;;24.60;;
63157;SDS011;49381;49.338;8.794;2022-12-18T02:30:13;60.28;;;26.15;;
63157;SDS011;49381;49.338;8.794;2022-12-18T02:32:15;57.60;;;24.67;;
63157;SDS011;49381;49.338;8.794;2022-12-18T02:34:22;48.95;;;23.35;;
63157;SDS011;49381;49.338;8.794;2022-12-18T02:36:27;57.72;;;25.63;;
63157;SDS011;49381;49.338;8.794;2022-12-18T02:38:28;58.55;;;25.20;;
63157;SDS011;49381;49.338;8.794;2022-12-18T02:40:30;57.83;;;25.20;;
63157;SDS011;49381;49.338;8.794;2022-12-18T02:42:35;52.13;;;26.00;;
63157;SDS011;49381;49.338;8.794;2022-12-18T02:44:39;56.17;;;25.77;;
63157;SDS011;49381;49.338;8.794;2022-12-18T02:46:42;54.00;;;25.00;;
63157;SDS011;49381;49.338;8.794;2022-12-18T02:48:44;49.53;;;24.10;;
63157;SDS011;49381;49.338;8.794;2022-12-18T02:50:47;55.90;;;25.00;;
63157;SDS011;49381;49.338;8.794;2022-12-18T02:52:56;53.30;;;25.38;;
63157;SDS011;49381;49.338;8.794;2022-12-18T02:55:07;59.35;;;25.73;;
63157;SDS011;49381;49.338;8.794;2022-12-18T02:57:19;56.17;;;25.00;;
63157;SDS011;49381;49.338;8.794;2022-12-18T02:59:28;55.25;;;25.40;;
63157;SDS011;49381;49.338;8.794;2022-12-18T03:01:34;51.88;;;24.27;;
63157;SDS011;49381;49.338;8.794;2022-12-18T03:03:43;44.63;;;21.25;;
63157;SDS011;49381;49.338;8.794;2022-12-18T03:05:49;47.33;;;21.38;;
63157;SDS011;49381;49.338;8.794;2022-12-18T03:07:53;55.05;;;23.80;;
63157;SDS011;49381;49.338;8.794;2022-12-18T03:09:57;48.88;;;23.52;;
63157;SDS011;49381;49.338;8.794;2022-12-18T03:12:00;59.63;;;23.70;;
63157;SDS011;49381;49.338;8.794;2022-12-18T03:14:05;49.40;;;22.95;;
63157;SDS011;49381;49.338;8.794;2022-12-18T03:16:10;55.10;;;23.75;;
63157;SDS011;49381;49.338;8.794;2022-12-18T03:18:16;51.95;;;24.15;;
63157;SDS011;49381;49.338;8.794;2022-12-18T03:20:19;56.03;;;23.48;;
63157;SDS011;49381;49.338;8.794;2022-12-18T03:22:21;46.30;;;22.17;;
63157;SDS011;49381;49.338;8.794;2022-12-18T03:24:25;59.47;;;25.33;;
63157;SDS011;49381;49.338;8.794;2022-12-18T03:26:29;51.75;;;24.55;;
63157;SDS011;49381;49.338;8.794;2022-12-18T03:28:30;55.47;;;24.02;;
63157;SDS011;49381;49.338;8.794;2022-12-18T03:30:33;46.88;;;23.30;;
63157;SDS011;49381;49.338;8.794;2022-12-18T03:32:42;44.05;;;21.30;;
63157;SDS011;49381;49.338;8.794;2022-12-18T03:34:49;42.85;;;20.17;;
63157;SDS011;49381;49.338;8.794;2022-12-18T03:36:51;37.38;;;17.90;;
63157;SDS011;49381;49.338;8.794;2022-12-18T03:38:52;38.00;;;17.52;;
63157;SDS011;49381;49.338;8.794;2022-12-18T03:40:54;41.70;;;19.02;;
63157;SDS011;49381;49.338;8.794;2022-12-18T03:42:59;42.75;;;18.58;;
63157;SDS011;49381;49.338;8.794;2022-12-18T03:47:10;45.90;;;21.08;;
63157;SDS011;49381;49.338;8.794;2022-12-18T03:49:17;57.33;;;23.17;;
63157;SDS011;49381;49.338;8.794;2022-12-18T03:51:24;54.50;;;23.65;;
63157;SDS011;49381;49.338;8.794;2022-12-18T03:53:31;49.88;;;22.90;;
63157;SDS011;49381;49.338;8.794;2022-12-18T03:55:36;51.75;;;22.88;;
63157;SDS011;49381;49.338;8.794;2022-12-18T03:57:38;46.88;;;21.55;;
63157;SDS011;49381;49.338;8.794;2022-12-18T03:59:41;48.08;;;23.30;;
63157;SDS011;49381;49.338;8.794;2022-12-18T04:01:45;46.88;;;21.17;;
63157;SDS011;49381;49.338;8.794;2022-12-18T04:03:48;56.70;;;22.92;;
63157;SDS011;49381;49.338;8.794;2022-12-18T04:05:51;57.00;;;24.33;;
63157;SDS011;49381;49.338;8.794;2022-12-18T04:07:52;41.75;;;19.98;;
63157;SDS011;49381;49.338;8.794;2022-12-18T04:09:54;44.10;;;18.52;;
63157;SDS011;49381;49.338;8.794;2022-12-18T04:11:58;43.50;;;20.15;;
63157;SDS011;49381;49.338;8.794;2022-12-18T04:13:59;46.35;;;19.77;;
63157;SDS011;49381;49.338;8.794;2022-12-18T04:15:59;41.55;;;19.50;;
63157;SDS011;49381;49.338;8.794;2022-12-18T04:17:59;40.97;;;19.33;;
63157;SDS011;49381;49.338;8.794;2022-12-18T04:20:00;36.10;;;19.58;;
63157;SDS011;49381;49.338;8.794;2022-12-18T04:22:01;50.05;;;20.30;;
63157;SDS011;49381;49.338;8.794;2022-12-18T04:24:02;44.92;;;19.73;;
63157;SDS011;49381;49.338;8.794;2022-12-18T04:26:02;45.95;;;21.10;;
63157;SDS011;49381;49.338;8.794;2022-12-18T04:28:03;47.55;;;21.98;;
63157;SDS011;49381;49.338;8.794;2022-12-18T04:30:04;51.15;;;21.95;;
63157;SDS011;49381;49.338;8.794;2022-12-18T04:32:05;51.28;;;23.85;;
63157;SDS011;49381;49.338;8.794;2022-12-18T04:34:06;45.35;;;20.95;;
63157;SDS011;49381;49.338;8.794;2022-12-18T04:36:06;44.70;;;20.52;;
63157;SDS011;49381;49.338;8.794;2022-12-18T04:38:08;50.67;;;20.75;;
63157;SDS011;49381;49.338;8.794;2022-12-18T04:40:10;45.45;;;20.48;;
63157;SDS011;49381;49.338;8.794;2022-12-18T04:42:11;44.92;;;20.02;;
63157;SDS011;49381;49.338;8.794;2022-12-18T04:44:11;48.63;;;21.75;;
63157;SDS011;49381;49.338;8.794;2022-12-18T04:46:12;38.38;;;18.67;;
63157;SDS011;49381;49.338;8.794;2022-12-18T04:48:12;43.10;;;19.77;;
63157;SDS011;49381;49.338;8.794;2022-12-18T04:50:13;43.95;;;20.85;;
63157;SDS011;49381;49.338;8.794;2022-12-18T04:52:13;47.35;;;21.55;;
63157;SDS011;49381;49.338;8.794;2022-12-18T04:54:15;46.30;;;20.00;;
63157;SDS011;49381;49.338;8.794;2022-12-18T04:56:15;44.15;;;19.92;;
63157;SDS011;49381;49.338;8.794;2022-12-18T04:58:16;42.67;;;20.30;;
63157;SDS011;49381;49.338;8.794;2022-12-18T05:00:16;47.20;;;22.23;;
63157;SDS011;49381;49.338;8.794;2022-12-18T05:02:17;47.75;;;21.42;;
63157;SDS011;49381;49.338;8.794;2022-12-18T05:04:17;46.10;;;22.38;;
63157;SDS011;49381;49.338;8.794;2022-12-18T05:06:18;48.17;;;20.73;;
63157;SDS011;49381;49.338;8.794;2022-12-18T05:08:18;51.00;;;21.85;;
63157;SDS011;49381;49.338;8.794;2022-12-18T05:10:20;40.22;;;19.92;;
63157;SDS011;49381;49.338;8.794;2022-12-18T05:12:20;42.05;;;17.58;;
63157;SDS011;49381;49.338;8.794;2022-12-18T05:14:23;37.67;;;17.02;;
63157;SDS011;49381;49.338;8.794;2022-12-18T05:16:23;43.20;;;17.65;;
63157;SDS011;49381;49.338;8.794;2022-12-18T05:18:24;43.33;;;17.90;;
63157;SDS011;49381;49.338;8.794;2022-12-18T05:20:25;40.63;;;18.98;;
63157;SDS011;49381;49.338;8.794;2022-12-18T05:22:26;37.60;;;18.67;;
63157;SDS011;49381;49.338;8.794;2022-12-18T05:24:27;41.13;;;20.23;;
63157;SDS011;49381;49.338;8.794;2022-12-18T05:26:28;42.17;;;19.02;;
63157;SDS011;49381;49.338;8.794;2022-12-18T05:28:31;41.92;;;18.73;;
63157;SDS011;49381;49.338;8.794;2022-12-18T05:30:33;44.03;;;20.85;;
63157;SDS011;49381;49.338;8.794;2022-12-18T05:32:33;37.80;;;19.35;;
63157;SDS011;49381;49.338;8.794;2022-12-18T05:34:34;41.58;;;18.80;;
63157;SDS011;49381;49.338;8.794;2022-12-18T05:36:34;42.60;;;19.48;;
63157;SDS011;49381;49.338;8.794;2022-12-18T05:38:35;47.95;;;20.00;;
63157;SDS011;49381;49.338;8.794;2022-12-18T05:40:36;43.65;;;21.60;;
63157;SDS011;49381;49.338;8.794;2022-12-18T05:42:38;45.80;;;19.88;;
63157;SDS011;49381;49.338;8.794;2022-12-18T05:44:38;42.95;;;20.02;;
63157;SDS011;49381;49.338;8.794;2022-12-18T05:46:39;48.08;;;20.92;;
63157;SDS011;49381;49.338;8.794;2022-12-18T05:48:39;45.50;;;20.00;;
63157;SDS011;49381;49.338;8.794;2022-12-18T05:50:40;45.78;;;20.40;;
63157;SDS011;49381;49.338;8.794;2022-12-18T05:52:41;46.22;;;22.63;;
63157;SDS011;49381;49.338;8.794;2022-12-18T05:54:42;43.33;;;19.75;;
63157;SDS011;49381;49.338;8.794;2022-12-18T05:56:42;43.55;;;20.08;;
63157;SDS011;49381;49.338;8.794;2022-12-18T05:58:44;44.08;;;19.35;;
63157;SDS011;49381;49.338;8.794;2022-12-18T06:00:45;40.70;;;19.85;;
63157;SDS011;49381;49.338;8.794;2022-12-18T06:02:46;46.30;;;19.83;;
63157;SDS011;49381;49.338;8.794;2022-12-18T06:04:47;41.97;;;20.08;;
63157;SDS011;49381;49.338;8.794;2022-12-18T06:06:47;41.28;;;20.60;;
63157;SDS011;49381;49.338;8.794;2022-12-18T06:08:47;47.42;;;19.63;;
63157;SDS011;49381;49.338;8.794;2022-12-18T06:10:49;43.05;;;18.88;;
63157;SDS011;49381;49.338;8.794;2022-12-18T06:12:50;46.50;;;20.73;;
63157;SDS011;49381;49.338;8.794;2022-12-18T06:14:52;48.35;;;19.83;;
63157;SDS011;49381;49.338;8.794;2022-12-18T06:16:52;49.72;;;20.58;;
63157;SDS011;49381;49.338;8.794;2022-12-18T06:18:53;49.13;;;21.25;;
63157;SDS011;49381;49.338;8.794;2022-12-18T06:20:55;44.63;;;19.45;;
63157;SDS011;49381;49.338;8.794;2022-12-18T06:22:56;45.50;;;21.63;;
63157;SDS011;49381;49.338;8.794;2022-12-18T06:24:56;46.22;;;20.77;;
63157;SDS011;49381;49.338;8.794;2022-12-18T06:26:56;43.47;;;21.00;;
63157;SDS011;49381;49.338;8.794;2022-12-18T06:28:56;47.90;;;21.00;;
63157;SDS011;49381;49.338;8.794;2022-12-18T06:30:58;42.28;;;20.55;;
63157;SDS011;49381;49.338;8.794;2022-12-18T06:32:59;41.13;;;19.92;;
63157;SDS011;49381;49.338;8.794;2022-12-18T06:34:59;43.08;;;19.83;;
63157;SDS011;49381;49.338;8.794;2022-12-18T06:36:59;42.35;;;20.45;;
63157;SDS011;49381;49.338;8.794;2022-12-18T06:39:00;44.55;;;21.60;;
63157;SDS011;49381;49.338;8.794;2022-12-18T06:41:00;44.60;;;20.23;;
63157;SDS011;49381;49.338;8.794;2022-12-18T06:43:00;40.45;;;19.05;;
63157;SDS011;49381;49.338;8.794;2022-12-18T06:45:01;48.25;;;23.00;;
63157;SDS011;49381;49.338;8.794;2022-12-18T06:47:03;52.58;;;23.48;;
63157;SDS011;49381;49.338;8.794;2022-12-18T06:49:03;53.40;;;21.30;;
63157;SDS011;49381;49.338;8.794;2022-12-18T06:51:04;42.60;;;19.75;;
63157;SDS011;49381;49.338;8.794;2022-12-18T06:53:04;48.78;;;20.92;;
63157;SDS011;49381;49.338;8.794;2022-12-18T06:55:05;45.83;;;20.58;;
63157;SDS011;49381;49.338;8.794;2022-12-18T06:57:06;44.55;;;19.83;;
63157;SDS011;49381;49.338;8.794;2022-12-18T06:59:07;61.40;;;25.55;;
63157;SDS011;49381;49.338;8.794;2022-12-18T07:01:08;66.18;;;27.45;;
63157;SDS011;49381;49.338;8.794;2022-12-18T07:03:11;64.90;;;27.73;;
63157;SDS011;49381;49.338;8.794;2022-12-18T07:05:12;53.45;;;24.25;;
63157;SDS011;49381;49.338;8.794;2022-12-18T07:07:12;54.92;;;24.20;;
63157;SDS011;49381;49.338;8.794;2022-12-18T07:09:12;52.80;;;24.33;;
63157;SDS011;49381;49.338;8.794;2022-12-18T07:11:13;56.17;;;23.17;;
63157;SDS011;49381;49.338;8.794;2022-12-18T07:13:13;50.38;;;21.63;;
63157;SDS011;49381;49.338;8.794;2022-12-18T07:15:13;51.33;;;21.20;;
63157;SDS011;49381;49.338;8.794;2022-12-18T07:17:14;57.92;;;22.95;;
63157;SDS011;49381;49.338;8.794;2022-12-18T07:19:23;55.05;;;22.60;;
63157;SDS011;49381;49.338;8.794;2022-12-18T07:21:26;52.20;;;21.27;;
63157;SDS011;49381;49.338;8.794;2022-12-18T07:23:26;56.30;;;22.77;;
63157;SDS011;49381;49.338;8.794;2022-12-18T07:25:28;53.22;;;22.73;;
63157;SDS011;49381;49.338;8.794;2022-12-18T07:27:29;53.47;;;21.08;;
63157;SDS011;49381;49.338;8.794;2022-12-18T07:29:31;55.17;;;22.27;;
63157;SDS011;49381;49.338;8.794;2022-12-18T07:31:51;56.30;;;22.38;;
63157;SDS011;49381;49.338;8.794;2022-12-18T07:33:59;46.08;;;18.65;;
63157;SDS011;49381;49.338;8.794;2022-12-18T07:36:03;52.47;;;22.48;;
63157;SDS011;49381;49.338;8.794;2022-12-18T07:38:06;49.00;;;20.90;;
63157;SDS011;49381;49.338;8.794;2022-12-18T07:40:07;59.92;;;23.25;;
63157;SDS011;49381;49.338;8.794;2022-12-18T07:42:08;56.95;;;22.15;;
63157;SDS011;49381;49.338;8.794;2022-12-18T07:44:09;56.10;;;22.77;;
63157;SDS011;49381;49.338;8.794;2022-12-18T07:46:10;51.08;;;21.77;;
63157;SDS011;49381;49.338;8.794;2022-12-18T07:48:11;52.22;;;22.08;;
63157;SDS011;49381;49.338;8.794;2022-12-18T07:50:11;52.92;;;21.60;;
63157;SDS011;49381;49.338;8.794;2022-12-18T07:52:13;45.72;;;20.45;;
63157;SDS011;49381;49.338;8.794;2022-12-18T07:54:14;47.75;;;20.73;;
63157;SDS011;49381;49.338;8.794;2022-12-18T07:56:14;50.20;;;21.20;;
63157;SDS011;49381;49.338;8.794;2022-12-18T07:58:15;54.55;;;20.92;;
63157;SDS011;49381;49.338;8.794;2022-12-18T08:00:15;51.15;;;19.60;;
63157;SDS011;49381;49.338;8.794;2022-12-18T08:02:16;48.85;;;21.05;;
63157;SDS011;49381;49.338;8.794;2022-12-18T08:04:16;53.08;;;20.73;;
63157;SDS011;49381;49.338;8.794;2022-12-18T08:06:17;58.35;;;20.95;;
63157;SDS011;49381;49.338;8.794;2022-12-18T08:08:19;53.08;;;22.05;;
63157;SDS011;49381;49.338;8.794;2022-12-18T08:10:19;50.50;;;21.52;;
63157;SDS011;49381;49.338;8.794;2022-12-18T08:12:20;52.30;;;21.48;;
63157;SDS011;49381;49.338;8.794;2022-12-18T08:14:22;51.38;;;21.60;;
63157;SDS011;49381;49.338;8.794;2022-12-18T08:16:23;49.95;;;18.98;;
63157;SDS011;49381;49.338;8.794;2022-12-18T08:18:23;50.00;;;21.52;;
63157;SDS011;49381;49.338;8.794;2022-12-18T08:20:24;58.67;;;22.88;;
63157;SDS011;49381;49.338;8.794;2022-12-18T08:22:24;53.80;;;21.02;;
63157;SDS011;49381;49.338;8.794;2022-12-18T08:24:26;57.60;;;22.50;;
63157;SDS011;49381;49.338;8.794;2022-12-18T08:26:27;50.83;;;20.88;;
63157;SDS011;49381;49.338;8.794;2022-12-18T08:28:29;57.35;;;21.92;;
63157;SDS011;49381;49.338;8.794;2022-12-18T08:30:30;57.58;;;21.88;;
63157;SDS011;49381;49.338;8.794;2022-12-18T08:32:30;54.22;;;21.98;;
63157;SDS011;49381;49.338;8.794;2022-12-18T08:34:30;60.33;;;22.48;;
63157;SDS011;49381;49.338;8.794;2022-12-18T08:36:31;53.08;;;22.42;;
63157;SDS011;49381;49.338;8.794;2022-12-18T08:38:31;52.75;;;21.00;;
63157;SDS011;49381;49.338;8.794;2022-12-18T08:40:33;56.92;;;22.50;;
63157;SDS011;49381;49.338;8.794;2022-12-18T08:42:33;51.55;;;20.73;;
63157;SDS011;49381;49.338;8.794;2022-12-18T08:44:34;52.67;;;20.05;;
63157;SDS011;49381;49.338;8.794;2022-12-18T08:46:35;52.95;;;20.80;;
63157;SDS011;49381;49.338;8.794;2022-12-18T08:48:41;46.88;;;19.95;;
63157;SDS011;49381;49.338;8.794;2022-12-18T08:50:42;53.35;;;22.00;;
63157;SDS011;49381;49.338;8.794;2022-12-18T08:55:46;52.38;;;20.58;;
63157;SDS011;49381;49.338;8.794;2022-12-18T08:58:05;57.05;;;20.92;;
63157;SDS011;49381;49.338;8.794;2022-12-18T09:00:40;45.70;;;19.08;;
63157;SDS011;49381;49.338;8.794;2022-12-18T09:03:55;53.47;;;21.13;;
63157;SDS011;49381;49.338;8.794;2022-12-18T09:06:00;49.10;;;20.00;;
63157;SDS011;49381;49.338;8.794;2022-12-18T09:08:08;52.13;;;19.75;;
63157;SDS011;49381;49.338;8.794;2022-12-18T09:10:50;51.60;;;20.80;;
63157;SDS011;49381;49.338;8.794;2022-12-18T09:13:03;33.80;;;14.40;;
63157;SDS011;49381;49.338;8.794;2022-12-18T09:15:04;54.78;;;21.15;;
63157;SDS011;49381;49.338;8.794;2022-12-18T09:17:09;51.00;;;19.83;;
63157;SDS011;49381;49.338;8.794;2022-12-18T09:19:39;58.60;;;22.13;;
63157;SDS011;49381;49.338;8.794;2022-12-18T09:21:41;54.10;;;21.50;;
63157;SDS011;49381;49.338;8.794;2022-12-18T09:25:23;52.30;;;20.50;;
63157;SDS011;49381;49.338;8.794;2022-12-18T09:26:28;48.90;;;18.88;;
63157;SDS011;49381;49.338;8.794;2022-12-18T09:28:39;56.97;;;21.48;;
63157;SDS011;49381;49.338;8.794;2022-12-18T09:31:24;56.90;;;21.77;;
63157;SDS011;49381;49.338;8.794;2022-12-18T09:33:24;51.00;;;19.23;;
63157;SDS011;49381;49.338;8.794;2022-12-18T09:35:46;50.08;;;19.60;;
63157;SDS011;49381;49.338;8.794;2022-12-18T09:37:46;48.00;;;20.48;;
63157;SDS011;49381;49.338;8.794;2022-12-18T09:39:47;54.30;;;19.13;;
63157;SDS011;49381;49.338;8.794;2022-12-18T09:42:04;53.05;;;22.38;;
63157;SDS011;49381;49.338;8.794;2022-12-18T09:44:09;53.78;;;20.65;;
63157;SDS011;49381;49.338;8.794;2022-12-18T09:46:23;59.42;;;22.58;;
63157;SDS011;49381;49.338;8.794;2022-12-18T09:48:38;56.08;;;21.02;;
63157;SDS011;49381;49.338;8.794;2022-12-18T09:50:42;52.15;;;20.35;;
63157;SDS011;49381;49.338;8.794;2022-12-18T09:52:44;51.38;;;20.33;;
63157;SDS011;49381;49.338;8.794;2022-12-18T09:54:49;55.58;;;21.40;;
63157;SDS011;49381;49.338;8.794;2022-12-18T09:56:53;54.60;;;20.02;;
63157;SDS011;49381;49.338;8.794;2022-12-18T09:59:00;53.88;;;19.92;;
63157;SDS011;49381;49.338;8.794;2022-12-18T10:01:11;56.38;;;21.02;;
63157;SDS011;49381;49.338;8.794;2022-12-18T10:03:28;59.60;;;22.17;;
63157;SDS011;49381;49.338;8.794;2022-12-18T10:05:48;55.10;;;21.02;;
63157;SDS011;49381;49.338;8.794;2022-12-18T10:08:05;57.00;;;22.65;;
63157;SDS011;49381;49.338;8.794;2022-12-18T10:10:14;60.85;;;25.10;;
63157;SDS011;49381;49.338;8.794;2022-12-18T10:12:29;60.60;;;22.95;;
63157;SDS011;49381;49.338;8.794;2022-12-18T10:14:41;50.22;;;19.02;;
63157;SDS011;49381;49.338;8.794;2022-12-18T10:16:57;58.83;;;19.75;;
63157;SDS011;49381;49.338;8.794;2022-12-18T10:19:07;54.58;;;18.25;;
63157;SDS011;49381;49.338;8.794;2022-12-18T10:21:38;51.13;;;19.10;;
63157;SDS011;49381;49.338;8.794;2022-12-18T10:23:48;53.90;;;19.85;;
63157;SDS011;49381;49.338;8.794;2022-12-18T10:25:55;60.90;;;20.30;;
63157;SDS011;49381;49.338;8.794;2022-12-18T10:28:13;61.45;;;21.05;;
63157;SDS011;49381;49.338;8.794;2022-12-18T10:30:18;58.47;;;21.85;;
63157;SDS011;49381;49.338;8.794;2022-12-18T10:32:24;58.08;;;21.05;;
63157;SDS011;49381;49.338;8.794;2022-12-18T10:34:32;56.10;;;20.33;;
63157;SDS011;49381;49.338;8.794;2022-12-18T10:36:35;53.50;;;20.25;;
63157;SDS011;49381;49.338;8.794;2022-12-18T10:38:37;50.45;;;19.73;;
63157;SDS011;49381;49.338;8.794;2022-12-18T10:40:49;52.70;;;20.48;;
63157;SDS011;49381;49.338;8.794;2022-12-18T10:43:04;63.45;;;21.92;;
63157;SDS011;49381;49.338;8.794;2022-12-18T10:45:12;54.97;;;19.77;;
63157;SDS011;49381;49.338;8.794;2022-12-18T10:47:14;55.70;;;20.80;;
63157;SDS011;49381;49.338;8.794;2022-12-18T10:49:20;57.22;;;19.48;;
63157;SDS011;49381;49.338;8.794;2022-12-18T10:51:23;47.05;;;18.55;;
63157;SDS011;49381;49.338;8.794;2022-12-18T10:53:28;49.58;;;18.98;;
63157;SDS011;49381;49.338;8.794;2022-12-18T10:55:35;55.30;;;19.33;;
63157;SDS011;49381;49.338;8.794;2022-12-18T10:57:40;53.17;;;19.67;;
63157;SDS011;49381;49.338;8.794;2022-12-18T10:59:49;54.53;;;19.80;;
63157;SDS011;49381;49.338;8.794;2022-12-18T11:01:51;55.03;;;20.80;;
63157;SDS011;49381;49.338;8.794;2022-12-18T11:03:59;51.33;;;20.10;;
63157;SDS011;49381;49.338;8.794;2022-12-18T11:06:08;50.83;;;20.17;;
63157;SDS011;49381;49.338;8.794;2022-12-18T11:08:18;56.47;;;22.40;;
63157;SDS011;49381;49.338;8.794;2022-12-18T11:10:22;51.65;;;19.80;;
63157;SDS011;49381;49.338;8.794;2022-12-18T11:12:31;57.55;;;20.45;;
63157;SDS011;49381;49.338;8.794;2022-12-18T11:14:41;56.80;;;20.02;;
63157;SDS011;49381;49.338;8.794;2022-12-18T11:17:16;51.70;;;17.48;;
63157;SDS011;49381;49.338;8.794;2022-12-18T11:19:20;51.65;;;21.45;;
63157;SDS011;49381;49.338;8.794;2022-12-18T11:21:38;50.50;;;20.90;;
63157;SDS011;49381;49.338;8.794;2022-12-18T11:23:44;55.10;;;19.98;;
63157;SDS011;49381;49.338;8.794;2022-12-18T11:25:53;56.17;;;20.42;;
63157;SDS011;49381;49.338;8.794;2022-12-18T11:27:59;52.03;;;19.60;;
63157;SDS011;49381;49.338;8.794;2022-12-18T11:30:13;55.22;;;20.90;;
63157;SDS011;49381;49.338;8.794;2022-12-18T11:32:28;60.78;;;20.23;;
63157;SDS011;49381;49.338;8.794;2022-12-18T11:34:51;50.33;;;19.33;;
63157;SDS011;49381;49.338;8.794;2022-12-18T11:37:03;59.08;;;20.25;;
63157;SDS011;49381;49.338;8.794;2022-12-18T11:39:07;48.88;;;18.88;;
63157;SDS011;49381;49.338;8.794;2022-12-18T11:41:30;49.65;;;18.88;;
63157;SDS011;49381;49.338;8.794;2022-12-18T11:43:39;53.53;;;20.60;;
63157;SDS011;49381;49.338;8.794;2022-12-18T11:45:48;55.47;;;20.58;;
63157;SDS011;49381;49.338;8.794;2022-12-18T11:47:54;56.97;;;22.10;;
63157;SDS011;49381;49.338;8.794;2022-12-18T11:50:48;50.85;;;18.60;;
63157;SDS011;49381;49.338;8.794;2022-12-18T11:55:37;55.63;;;20.52;;
63157;SDS011;49381;49.338;8.794;2022-12-18T11:57:45;50.30;;;18.65;;
63157;SDS011;49381;49.338;8.794;2022-12-18T11:59:52;50.67;;;17.95;;
63157;SDS011;49381;49.338;8.794;2022-12-18T12:01:59;50.97;;;19.88;;
63157;SDS011;49381;49.338;8.794;2022-12-18T12:04:31;50.75;;;18.80;;
63157;SDS011;49381;49.338;8.794;2022-12-18T12:06:51;55.88;;;19.23;;
63157;SDS011;49381;49.338;8.794;2022-12-18T12:11:39;53.88;;;20.58;;
63157;SDS011;49381;49.338;8.794;2022-12-18T12:14:12;57.38;;;21.00;;
63157;SDS011;49381;49.338;8.794;2022-12-18T12:16:34;56.55;;;20.40;;
63157;SDS011;49381;49.338;8.794;2022-12-18T12:18:45;50.72;;;19.08;;
63157;SDS011;49381;49.338;8.794;2022-12-18T12:21:04;56.65;;;21.50;;
63157;SDS011;49381;49.338;8.794;2022-12-18T12:25:33;51.67;;;19.98;;